sensor_id;sensor_type;location;lat;lon;timestamp;pressure;altitude;pressure_sealevel;temperature;humidity
39449;BME280;25151;45.566;9.382;2023-04-07T00:00:51;99774.03;;;19.83;53.77
39449;BME280;25151;45.566;9.382;2023-04-07T00:03:52;99771.69;;;19.82;53.47
39449;BME280;25151;45.566;9.382;2023-04-07T00:06:54;99766.88;;;19.82;53.53
39449;BME280;25151;45.566;9.382;2023-04-07T00:09:57;99770.47;;;19.83;53.64
39449;BME280;25151;45.566;9.382;2023-04-07T00:13:00;99765.78;;;19.80;53.62
39449;BME280;25151;45.566;9.382;2023-04-07T00:16:03;99765.78;;;19.80;53.44
39449;BME280;25151;45.566;9.382;2023-04-07T00:19:04;99774.16;;;19.80;53.53
39449;BME280;25151;45.566;9.382;2023-04-07T00:22:06;99768.56;;;19.80;53.42
39449;BME280;25151;45.566;9.382;2023-04-07T00:25:10;99766.56;;;19.80;53.49
39449;BME280;25151;45.566;9.382;2023-04-07T00:28:13;99761.38;;;19.79;53.50
39449;BME280;25151;45.566;9.382;2023-04-07T00:31:16;99763.88;;;19.77;53.25
39449;BME280;25151;45.566;9.382;2023-04-07T00:34:17;99772.56;;;19.79;53.50
39449;BME280;25151;45.566;9.382;2023-04-07T00:41:15;99785.47;;;19.76;53.33
39449;BME280;25151;45.566;9.382;2023-04-07T00:52:29;99779.19;;;19.72;53.55
39449;BME280;25151;45.566;9.382;2023-04-07T01:15:46;99763.38;;;19.65;53.43
39449;BME280;25151;45.566;9.382;2023-04-07T01:38:17;99759.91;;;19.61;53.57
39449;BME280;25151;45.566;9.382;2023-04-07T01:41:19;99753.94;;;19.59;53.48
39449;BME280;25151;45.566;9.382;2023-04-07T01:44:23;99748.34;;;19.59;53.32
39449;BME280;25151;45.566;9.382;2023-04-07T01:47:28;99751.13;;;19.59;53.59
39449;BME280;25151;45.566;9.382;2023-04-07T01:50:33;99750.81;;;19.57;53.54
39449;BME280;25151;45.566;9.382;2023-04-07T01:53:35;99750.81;;;19.57;53.44
39449;BME280;25151;45.566;9.382;2023-04-07T01:56:38;99750.03;;;19.57;53.53
39449;BME280;25151;45.566;9.382;2023-04-07T01:59:39;99742.41;;;19.57;53.39
39449;BME280;25151;45.566;9.382;2023-04-07T02:02:44;99737.25;;;19.56;53.54
39449;BME280;25151;45.566;9.382;2023-04-07T02:05:51;99735.69;;;19.55;53.59
39449;BME280;25151;45.566;9.382;2023-04-07T02:08:59;99738.47;;;19.55;53.35
39449;BME280;25151;45.566;9.382;2023-04-07T02:12:04;99750.44;;;19.55;53.54
39449;BME280;25151;45.566;9.382;2023-04-07T02:15:11;99750.91;;;19.54;53.42
39449;BME280;25151;45.566;9.382;2023-04-07T02:18:16;99748.91;;;19.54;53.53
39449;BME280;25151;45.566;9.382;2023-04-07T02:21:19;99750.13;;;19.53;53.50
39449;BME280;25151;45.566;9.382;2023-04-07T02:24:22;99744.53;;;19.53;53.59
39449;BME280;25151;45.566;9.382;2023-04-07T02:27:23;99746.97;;;19.51;53.68
39449;BME280;25151;45.566;9.382;2023-04-07T02:30:26;99737.03;;;19.50;53.63
39449;BME280;25151;45.566;9.382;2023-04-07T02:33:29;99737.81;;;19.51;53.52
39449;BME280;25151;45.566;9.382;2023-04-07T02:36:38;99740.59;;;19.51;53.71
39449;BME280;25151;45.566;9.382;2023-04-07T02:39:40;99756.59;;;19.50;53.65
39449;BME280;25151;45.566;9.382;2023-04-07T02:42:45;99767.00;;;19.50;53.56
39449;BME280;25151;45.566;9.382;2023-04-07T02:45:47;99760.63;;;19.49;53.55
39449;BME280;25151;45.566;9.382;2023-04-07T02:48:49;99759.84;;;19.49;53.52
39449;BME280;25151;45.566;9.382;2023-04-07T02:51:52;99759.06;;;19.48;53.73
39449;BME280;25151;45.566;9.382;2023-04-07T02:54:54;99754.69;;;19.47;53.70
39449;BME280;25151;45.566;9.382;2023-04-07T02:57:57;99750.31;;;19.46;53.80
39449;BME280;25151;45.566;9.382;2023-04-07T03:00:59;99747.06;;;19.48;53.47
39449;BME280;25151;45.566;9.382;2023-04-07T03:04:00;99740.69;;;19.47;53.52
39449;BME280;25151;45.566;9.382;2023-04-07T03:07:03;99740.69;;;19.47;53.69
39449;BME280;25151;45.566;9.382;2023-04-07T03:10:09;99736.34;;;19.46;53.65
39449;BME280;25151;45.566;9.382;2023-04-07T03:13:11;99749.53;;;19.46;53.53
39449;BME280;25151;45.566;9.382;2023-04-07T03:16:16;99743.16;;;19.45;53.55
39449;BME280;25151;45.566;9.382;2023-04-07T03:19:28;99731.22;;;19.45;53.74
39449;BME280;25151;45.566;9.382;2023-04-07T03:22:30;99737.59;;;19.45;53.81
39449;BME280;25151;45.566;9.382;2023-04-07T03:25:32;99732.41;;;19.44;53.74
39449;BME280;25151;45.566;9.382;2023-04-07T03:28:35;99739.59;;;19.45;53.62
39449;BME280;25151;45.566;9.382;2023-04-07T03:31:41;99737.22;;;19.43;53.65
39449;BME280;25151;45.566;9.382;2023-04-07T03:34:44;99725.72;;;19.41;53.79
39449;BME280;25151;45.566;9.382;2023-04-07T03:37:47;99721.69;;;19.42;53.62
39449;BME280;25151;45.566;9.382;2023-04-07T03:40:49;99729.28;;;19.41;53.62
39449;BME280;25151;45.566;9.382;2023-04-07T03:43:51;99730.06;;;19.42;53.65
39449;BME280;25151;45.566;9.382;2023-04-07T03:46:54;99732.88;;;19.42;53.76
39449;BME280;25151;45.566;9.382;2023-04-07T03:49:55;99731.31;;;19.41;53.94
39449;BME280;25151;45.566;9.382;2023-04-07T03:52:58;99725.72;;;19.41;53.75
39449;BME280;25151;45.566;9.382;2023-04-07T03:56:03;99730.53;;;19.40;53.67
39449;BME280;25151;45.566;9.382;2023-04-07T03:59:06;99724.13;;;19.40;53.71
39449;BME280;25151;45.566;9.382;2023-04-07T04:02:13;99724.13;;;19.40;53.84
39449;BME280;25151;45.566;9.382;2023-04-07T04:05:15;99724.56;;;19.38;53.62
39449;BME280;25151;45.566;9.382;2023-04-07T04:08:19;99722.56;;;19.39;53.67
39449;BME280;25151;45.566;9.382;2023-04-07T04:11:21;99722.56;;;19.39;53.69
39449;BME280;25151;45.566;9.382;2023-04-07T04:14:25;99721.00;;;19.38;53.77
39449;BME280;25151;45.566;9.382;2023-04-07T04:17:27;99714.63;;;19.37;53.81
39449;BME280;25151;45.566;9.382;2023-04-07T04:20:29;99716.19;;;19.38;53.41
39449;BME280;25151;45.566;9.382;2023-04-07T04:23:31;99716.66;;;19.37;53.71
39449;BME280;25151;45.566;9.382;2023-04-07T04:26:32;99711.06;;;19.37;53.70
39449;BME280;25151;45.566;9.382;2023-04-07T04:29:34;99712.63;;;19.38;53.85
39449;BME280;25151;45.566;9.382;2023-04-07T04:32:37;99708.25;;;19.37;53.77
39449;BME280;25151;45.566;9.382;2023-04-07T04:35:40;99706.66;;;19.36;53.59
39449;BME280;25151;45.566;9.382;2023-04-07T04:38:41;99717.84;;;19.36;53.69
39449;BME280;25151;45.566;9.382;2023-04-07T04:41:44;99712.25;;;19.36;53.67
39449;BME280;25151;45.566;9.382;2023-04-07T04:44:46;99710.69;;;19.35;53.96
39449;BME280;25151;45.566;9.382;2023-04-07T04:47:48;99712.25;;;19.36;53.68
39449;BME280;25151;45.566;9.382;2023-04-07T04:50:51;99716.28;;;19.35;53.82
39449;BME280;25151;45.566;9.382;2023-04-07T04:53:52;99716.28;;;19.35;53.86
39449;BME280;25151;45.566;9.382;2023-04-07T04:56:54;99720.31;;;19.34;53.71
39449;BME280;25151;45.566;9.382;2023-04-07T04:59:59;99724.25;;;19.36;53.84
39449;BME280;25151;45.566;9.382;2023-04-07T05:03:01;99727.47;;;19.35;53.79
39449;BME280;25151;45.566;9.382;2023-04-07T05:06:04;99725.91;;;19.34;53.79
39449;BME280;25151;45.566;9.382;2023-04-07T05:09:06;99718.75;;;19.33;53.88
39449;BME280;25151;45.566;9.382;2023-04-07T05:12:08;99718.75;;;19.33;53.92
39449;BME280;25151;45.566;9.382;2023-04-07T05:15:09;99711.16;;;19.33;53.71
39449;BME280;25151;45.566;9.382;2023-04-07T05:18:16;99711.56;;;19.32;53.83
39449;BME280;25151;45.566;9.382;2023-04-07T05:21:18;99705.97;;;19.32;53.82
39449;BME280;25151;45.566;9.382;2023-04-07T05:24:22;99716.38;;;19.31;53.83
39449;BME280;25151;45.566;9.382;2023-04-07T05:27:26;99712.03;;;19.30;53.74
39449;BME280;25151;45.566;9.382;2023-04-07T05:30:29;99709.22;;;19.30;53.77
39449;BME280;25151;45.566;9.382;2023-04-07T05:33:30;99714.03;;;19.30;53.97
39449;BME280;25151;45.566;9.382;2023-04-07T05:36:34;99712.03;;;19.30;53.76
39449;BME280;25151;45.566;9.382;2023-04-07T05:39:36;99714.03;;;19.30;53.77
39449;BME280;25151;45.566;9.382;2023-04-07T05:42:42;99711.25;;;19.30;53.78
39449;BME280;25151;45.566;9.382;2023-04-07T05:45:44;99721.66;;;19.29;53.76
39449;BME280;25151;45.566;9.382;2023-04-07T05:48:46;99714.03;;;19.30;53.78
39449;BME280;25151;45.566;9.382;2023-04-07T05:51:47;99718.06;;;19.29;53.88
39449;BME280;25151;45.566;9.382;2023-04-07T05:54:50;99713.25;;;19.29;53.79
39449;BME280;25151;45.566;9.382;2023-04-07T05:57:52;99718.06;;;19.29;53.75
39449;BME280;25151;45.566;9.382;2023-04-07T06:00:54;99715.72;;;19.27;53.81
39449;BME280;25151;45.566;9.382;2023-04-07T06:03:56;99720.09;;;19.28;53.86
39449;BME280;25151;45.566;9.382;2023-04-07T06:07:00;99714.16;;;19.26;53.65
39449;BME280;25151;45.566;9.382;2023-04-07T06:10:01;99723.31;;;19.27;53.84
39449;BME280;25151;45.566;9.382;2023-04-07T06:13:03;99719.75;;;19.26;53.76
39449;BME280;25151;45.566;9.382;2023-04-07T06:16:08;99713.38;;;19.26;53.74
39449;BME280;25151;45.566;9.382;2023-04-07T06:19:10;99722.53;;;19.26;53.93
39449;BME280;25151;45.566;9.382;2023-04-07T06:22:12;99733.25;;;19.28;53.90
39449;BME280;25151;45.566;9.382;2023-04-07T06:25:14;99726.56;;;19.25;53.75
39449;BME280;25151;45.566;9.382;2023-04-07T06:28:18;99723.00;;;19.25;53.80
39449;BME280;25151;45.566;9.382;2023-04-07T06:31:23;99726.56;;;19.25;54.00
39449;BME280;25151;45.566;9.382;2023-04-07T06:34:27;99724.53;;;19.26;53.82
39449;BME280;25151;45.566;9.382;2023-04-07T06:37:32;99725.78;;;19.25;53.82
39449;BME280;25151;45.566;9.382;2023-04-07T06:40:35;99718.16;;;19.25;54.10
39449;BME280;25151;45.566;9.382;2023-04-07T06:43:37;99728.56;;;19.25;53.50
39449;BME280;25151;45.566;9.382;2023-04-07T06:46:40;99724.53;;;19.26;53.82
39449;BME280;25151;45.566;9.382;2023-04-07T06:49:45;99725.22;;;19.30;53.91
39449;BME280;25151;45.566;9.382;2023-04-07T06:52:47;99719.19;;;19.31;53.84
39449;BME280;25151;45.566;9.382;2023-04-07T06:55:49;99721.19;;;19.31;53.89
39449;BME280;25151;45.566;9.382;2023-04-07T06:58:51;99719.63;;;19.30;53.62
39449;BME280;25151;45.566;9.382;2023-04-07T07:01:52;99717.63;;;19.30;53.78
39449;BME280;25151;45.566;9.382;2023-04-07T07:04:53;99723.22;;;19.30;53.76
39449;BME280;25151;45.566;9.382;2023-04-07T07:07:55;99721.19;;;19.31;53.73
39449;BME280;25151;45.566;9.382;2023-04-07T07:10:56;99720.41;;;19.30;53.63
39449;BME280;25151;45.566;9.382;2023-04-07T07:14:00;99719.63;;;19.30;53.51
39449;BME280;25151;45.566;9.382;2023-04-07T07:17:16;99723.66;;;19.29;53.57
39449;BME280;25151;45.566;9.382;2023-04-07T07:20:28;99715.72;;;19.27;53.59
39449;BME280;25151;45.566;9.382;2023-04-07T07:23:34;99719.19;;;19.31;53.72
39449;BME280;25151;45.566;9.382;2023-04-07T07:26:41;99721.19;;;19.31;53.85
39449;BME280;25151;45.566;9.382;2023-04-07T07:29:51;99727.47;;;19.35;53.88
39449;BME280;25151;45.566;9.382;2023-04-07T07:32:52;99727.47;;;19.35;53.82
39449;BME280;25151;45.566;9.382;2023-04-07T07:35:56;99725.47;;;19.35;53.86
39449;BME280;25151;45.566;9.382;2023-04-07T07:38:58;99733.84;;;19.35;54.06
39449;BME280;25151;45.566;9.382;2023-04-07T07:41:59;99743.38;;;19.38;53.92
39449;BME280;25151;45.566;9.382;2023-04-07T07:45:05;99726.59;;;19.38;53.96
39449;BME280;25151;45.566;9.382;2023-04-07T07:48:07;99730.63;;;19.37;54.24
39449;BME280;25151;45.566;9.382;2023-04-07T07:51:08;99731.31;;;19.41;54.29
39449;BME280;25151;45.566;9.382;2023-04-07T07:54:11;99728.50;;;19.41;54.31
39449;BME280;25151;45.566;9.382;2023-04-07T07:57:15;99722.56;;;19.39;54.50
39449;BME280;25151;45.566;9.382;2023-04-07T08:00:16;99733.75;;;19.39;54.64
39449;BME280;25151;45.566;9.382;2023-04-07T08:03:19;99721.00;;;19.38;54.53
39449;BME280;25151;45.566;9.382;2023-04-07T08:06:22;99725.81;;;19.37;54.46
39449;BME280;25151;45.566;9.382;2023-04-07T08:09:25;99728.16;;;19.39;54.66
39449;BME280;25151;45.566;9.382;2023-04-07T08:12:28;99721.00;;;19.38;54.49
39449;BME280;25151;45.566;9.382;2023-04-07T08:15:29;99729.38;;;19.38;54.60
39449;BME280;25151;45.566;9.382;2023-04-07T08:18:31;99725.81;;;19.37;54.61
39449;BME280;25151;45.566;9.382;2023-04-07T08:21:33;99729.72;;;19.40;54.70
39449;BME280;25151;45.566;9.382;2023-04-07T08:24:35;99723.69;;;19.41;54.52
39449;BME280;25151;45.566;9.382;2023-04-07T08:27:38;99732.88;;;19.42;54.76
39449;BME280;25151;45.566;9.382;2023-04-07T08:30:40;99728.84;;;19.43;54.74
39449;BME280;25151;45.566;9.382;2023-04-07T08:33:42;99726.03;;;19.43;54.76
39449;BME280;25151;45.566;9.382;2023-04-07T08:36:44;99735.22;;;19.44;54.63
39449;BME280;25151;45.566;9.382;2023-04-07T08:39:46;99730.44;;;19.44;54.76
39449;BME280;25151;45.566;9.382;2023-04-07T08:42:48;99729.63;;;19.44;54.89
39449;BME280;25151;45.566;9.382;2023-04-07T08:45:56;99734.78;;;19.45;54.82
39449;BME280;25151;45.566;9.382;2023-04-07T08:49:00;99728.84;;;19.43;54.76
39449;BME280;25151;45.566;9.382;2023-04-07T08:52:06;99729.63;;;19.44;54.71
39449;BME280;25151;45.566;9.382;2023-04-07T08:55:13;99731.97;;;19.45;54.72
39449;BME280;25151;45.566;9.382;2023-04-07T08:58:17;99731.22;;;19.45;54.84
39449;BME280;25151;45.566;9.382;2023-04-07T09:01:19;99739.59;;;19.45;54.87
39449;BME280;25151;45.566;9.382;2023-04-07T09:04:23;99731.97;;;19.45;54.83
39449;BME280;25151;45.566;9.382;2023-04-07T09:07:30;99737.59;;;19.45;54.64
39449;BME280;25151;45.566;9.382;2023-04-07T09:10:31;99726.41;;;19.45;54.73
39449;BME280;25151;45.566;9.382;2023-04-07T09:13:35;99726.41;;;19.45;54.85
39449;BME280;25151;45.566;9.382;2023-04-07T09:16:37;99727.94;;;19.46;54.82
39449;BME280;25151;45.566;9.382;2023-04-07T09:19:38;99726.81;;;19.44;54.78
39449;BME280;25151;45.566;9.382;2023-04-07T09:22:43;99730.75;;;19.46;54.60
39449;BME280;25151;45.566;9.382;2023-04-07T09:25:48;99728.72;;;19.47;54.61
39449;BME280;25151;45.566;9.382;2023-04-07T09:28:55;99731.22;;;19.45;54.43
39449;BME280;25151;45.566;9.382;2023-04-07T09:31:57;99725.63;;;19.45;54.52
39449;BME280;25151;45.566;9.382;2023-04-07T09:35:00;99729.50;;;19.47;54.51
39449;BME280;25151;45.566;9.382;2023-04-07T09:38:04;99723.16;;;19.47;54.60
39449;BME280;25151;45.566;9.382;2023-04-07T09:41:13;99724.69;;;19.48;54.57
39449;BME280;25151;45.566;9.382;2023-04-07T09:44:17;99713.50;;;19.48;54.62
39449;BME280;25151;45.566;9.382;2023-04-07T09:47:27;99723.91;;;19.47;54.34
39449;BME280;25151;45.566;9.382;2023-04-07T09:50:34;99717.44;;;19.50;54.50
39449;BME280;25151;45.566;9.382;2023-04-07T09:53:52;99708.72;;;19.48;54.55
39449;BME280;25151;45.566;9.382;2023-04-07T09:56:57;99707.16;;;19.47;54.59
39449;BME280;25151;45.566;9.382;2023-04-07T10:00:07;99707.03;;;19.51;54.59
39449;BME280;25151;45.566;9.382;2023-04-07T10:03:13;99702.34;;;19.48;54.61
39449;BME280;25151;45.566;9.382;2023-04-07T10:06:20;99703.13;;;19.48;54.63
39449;BME280;25151;45.566;9.382;2023-04-07T10:09:26;99700.66;;;19.50;54.77
39449;BME280;25151;45.566;9.382;2023-04-07T10:12:38;99701.91;;;19.49;54.66
39449;BME280;25151;45.566;9.382;2023-04-07T10:15:43;99704.69;;;19.49;54.68
39449;BME280;25151;45.566;9.382;2023-04-07T10:18:46;99699.09;;;19.49;54.65
39449;BME280;25151;45.566;9.382;2023-04-07T10:21:53;99698.75;;;19.47;54.58
39449;BME280;25151;45.566;9.382;2023-04-07T10:25:01;99691.16;;;19.48;54.68
39449;BME280;25151;45.566;9.382;2023-04-07T10:28:08;99680.41;;;19.46;54.71
39449;BME280;25151;45.566;9.382;2023-04-07T10:31:12;99677.97;;;19.48;54.78
39449;BME280;25151;45.566;9.382;2023-04-07T10:34:41;99676.75;;;19.49;54.78
39449;BME280;25151;45.566;9.382;2023-04-07T10:38:08;99673.59;;;19.47;54.90
39449;BME280;25151;45.566;9.382;2023-04-07T10:41:33;99672.69;;;19.50;54.75
39449;BME280;25151;45.566;9.382;2023-04-07T10:48:08;99665.88;;;19.51;54.88
39449;BME280;25151;45.566;9.382;2023-04-07T10:51:12;99666.34;;;19.50;54.96
39449;BME280;25151;45.566;9.382;2023-04-07T10:54:21;99655.16;;;19.50;54.81
39449;BME280;25151;45.566;9.382;2023-04-07T10:57:27;99650.00;;;19.48;55.06
39449;BME280;25151;45.566;9.382;2023-04-07T11:00:29;99646.28;;;19.51;54.92
39449;BME280;25151;45.566;9.382;2023-04-07T11:03:32;99647.06;;;19.52;54.95
39449;BME280;25151;45.566;9.382;2023-04-07T11:06:47;99642.28;;;19.52;54.96
39449;BME280;25151;45.566;9.382;2023-04-07T11:10:13;99634.69;;;19.53;54.87
39449;BME280;25151;45.566;9.382;2023-04-07T11:13:16;99639.81;;;19.54;54.85
39449;BME280;25151;45.566;9.382;2023-04-07T11:16:34;99636.13;;;19.57;54.78
39449;BME280;25151;45.566;9.382;2023-04-07T11:23:49;99629.91;;;19.66;54.59
39449;BME280;25151;45.566;9.382;2023-04-07T11:27:15;99625.75;;;19.71;54.76
39449;BME280;25151;45.566;9.382;2023-04-07T11:30:30;99614.34;;;19.78;54.53
39449;BME280;25151;45.566;9.382;2023-04-07T11:41:31;99603.09;;;20.03;54.22
39449;BME280;25151;45.566;9.382;2023-04-07T11:49:18;99599.25;;;20.23;54.15
39449;BME280;25151;45.566;9.382;2023-04-07T11:52:26;99593.41;;;20.30;54.04
39449;BME280;25151;45.566;9.382;2023-04-07T11:55:31;99598.44;;;20.35;54.13
39449;BME280;25151;45.566;9.382;2023-04-07T11:58:37;99588.22;;;20.41;53.79
39449;BME280;25151;45.566;9.382;2023-04-07T12:01:53;99584.19;;;20.42;53.87
39449;BME280;25151;45.566;9.382;2023-04-07T12:04:58;99584.75;;;20.50;54.01
39449;BME280;25151;45.566;9.382;2023-04-07T12:08:08;99570.41;;;20.48;53.74
39449;BME280;25151;45.566;9.382;2023-04-07T12:11:26;99561.56;;;20.49;53.89
39449;BME280;25151;45.566;9.382;2023-04-07T12:14:56;99565.91;;;20.50;54.13
39449;BME280;25151;45.566;9.382;2023-04-07T12:22:32;99570.03;;;20.58;53.78
39449;BME280;25151;45.566;9.382;2023-04-07T12:25:37;99562.88;;;20.57;54.03
39449;BME280;25151;45.566;9.382;2023-04-07T12:28:38;99565.03;;;20.53;54.05
39449;BME280;25151;45.566;9.382;2023-04-07T12:31:39;99562.69;;;20.52;54.18
39449;BME280;25151;45.566;9.382;2023-04-07T12:34:42;99555.97;;;20.49;53.82
39449;BME280;25151;45.566;9.382;2023-04-07T12:41:38;99553.16;;;20.49;54.01
39449;BME280;25151;45.566;9.382;2023-04-07T12:44:39;99552.38;;;20.49;53.97
39449;BME280;25151;45.566;9.382;2023-04-07T12:47:44;99545.97;;;20.48;54.07
39449;BME280;25151;45.566;9.382;2023-04-07T12:50:46;99543.16;;;20.48;53.96
39449;BME280;25151;45.566;9.382;2023-04-07T12:57:51;99534.78;;;20.48;53.80
39449;BME280;25151;45.566;9.382;2023-04-07T13:00:53;99531.19;;;20.48;53.71
39449;BME280;25151;45.566;9.382;2023-04-07T13:03:54;99530.41;;;20.47;53.67
39449;BME280;25151;45.566;9.382;2023-04-07T13:07:27;99535.22;;;20.47;53.94
39449;BME280;25151;45.566;9.382;2023-04-07T13:10:39;99528.81;;;20.46;53.92
39449;BME280;25151;45.566;9.382;2023-04-07T13:13:40;99524.00;;;20.47;53.77
39449;BME280;25151;45.566;9.382;2023-04-07T13:16:41;99524.00;;;20.47;53.91
39449;BME280;25151;45.566;9.382;2023-04-07T13:23:31;99517.63;;;20.46;53.63
39449;BME280;25151;45.566;9.382;2023-04-07T13:26:34;99513.28;;;20.45;53.61
39449;BME280;25151;45.566;9.382;2023-04-07T13:29:40;99507.66;;;20.45;53.68
39449;BME280;25151;45.566;9.382;2023-04-07T13:32:41;99500.50;;;20.44;53.69
39449;BME280;25151;45.566;9.382;2023-04-07T13:35:43;99505.34;;;20.44;53.46
39449;BME280;25151;45.566;9.382;2023-04-07T13:38:44;99497.72;;;20.44;53.73
39449;BME280;25151;45.566;9.382;2023-04-07T13:41:56;99500.94;;;20.43;53.57
39449;BME280;25151;45.566;9.382;2023-04-07T13:44:58;99498.97;;;20.43;53.54
39449;BME280;25151;45.566;9.382;2023-04-07T13:47:59;99495.81;;;20.41;53.82
39449;BME280;25151;45.566;9.382;2023-04-07T13:51:04;99500.16;;;20.42;53.73
39449;BME280;25151;45.566;9.382;2023-04-07T13:54:29;99493.00;;;20.41;53.48
39449;BME280;25151;45.566;9.382;2023-04-07T13:57:41;99499.09;;;20.39;53.57
39449;BME280;25151;45.566;9.382;2023-04-07T14:00:43;99492.69;;;20.39;53.73
39449;BME280;25151;45.566;9.382;2023-04-07T14:03:48;99491.91;;;20.38;53.48
39449;BME280;25151;45.566;9.382;2023-04-07T14:06:57;99500.31;;;20.38;53.50
39449;BME280;25151;45.566;9.382;2023-04-07T14:10:39;99498.75;;;20.37;53.70
39449;BME280;25151;45.566;9.382;2023-04-07T14:17:19;99497.19;;;20.36;53.56
39449;BME280;25151;45.566;9.382;2023-04-07T14:20:24;99489.22;;;20.35;53.68
39449;BME280;25151;45.566;9.382;2023-04-07T14:23:26;99493.28;;;20.34;53.76
39449;BME280;25151;45.566;9.382;2023-04-07T14:26:27;99498.88;;;20.34;53.52
39449;BME280;25151;45.566;9.382;2023-04-07T14:29:29;99491.72;;;20.33;53.69
39449;BME280;25151;45.566;9.382;2023-04-07T14:32:35;99491.72;;;20.33;53.64
39449;BME280;25151;45.566;9.382;2023-04-07T14:36:02;99492.97;;;20.32;53.83
39449;BME280;25151;45.566;9.382;2023-04-07T14:39:04;99490.16;;;20.32;53.74
39449;BME280;25151;45.566;9.382;2023-04-07T14:42:05;99490.16;;;20.32;53.88
39449;BME280;25151;45.566;9.382;2023-04-07T14:45:08;99488.56;;;20.31;53.86
39449;BME280;25151;45.566;9.382;2023-04-07T14:48:10;99495.41;;;20.30;53.75
39449;BME280;25151;45.566;9.382;2023-04-07T14:51:12;99489.50;;;20.28;53.72
39449;BME280;25151;45.566;9.382;2023-04-07T14:54:17;99496.66;;;20.29;53.88
39449;BME280;25151;45.566;9.382;2023-04-07T14:57:17;99501.47;;;20.28;53.78
39449;BME280;25151;45.566;9.382;2023-04-07T15:00:19;99498.34;;;20.26;53.92
39449;BME280;25151;45.566;9.382;2023-04-07T15:03:20;99500.72;;;20.28;53.75
39449;BME280;25151;45.566;9.382;2023-04-07T15:06:22;99501.91;;;20.27;53.79
39449;BME280;25151;45.566;9.382;2023-04-07T15:09:23;99496.00;;;20.25;53.87
39449;BME280;25151;45.566;9.382;2023-04-07T15:12:25;99505.19;;;20.25;53.87
39449;BME280;25151;45.566;9.382;2023-04-07T15:15:27;99502.03;;;20.23;54.11
39449;BME280;25151;45.566;9.382;2023-04-07T15:18:31;99502.84;;;20.24;53.97
39449;BME280;25151;45.566;9.382;2023-04-07T15:21:32;99511.25;;;20.24;53.96
39449;BME280;25151;45.566;9.382;2023-04-07T15:24:35;99518.41;;;20.25;53.85
39449;BME280;25151;45.566;9.382;2023-04-07T15:27:36;99519.97;;;20.26;53.94
39449;BME280;25151;45.566;9.382;2023-04-07T15:42:36;99503.75;;;20.21;53.95
39449;BME280;25151;45.566;9.382;2023-04-07T15:45:53;99508.09;;;20.22;54.04
39449;BME280;25151;45.566;9.382;2023-04-07T15:53:11;99516.50;;;20.22;54.14
39449;BME280;25151;45.566;9.382;2023-04-07T15:56:42;99519.97;;;20.26;54.12
39449;BME280;25151;45.566;9.382;2023-04-07T16:00:16;99519.66;;;20.24;54.23
39449;BME280;25151;45.566;9.382;2023-04-07T16:03:22;99510.44;;;20.23;54.18
39449;BME280;25151;45.566;9.382;2023-04-07T16:06:25;99520.56;;;20.21;54.52
39449;BME280;25151;45.566;9.382;2023-04-07T16:09:33;99522.88;;;20.22;54.28
39449;BME280;25151;45.566;9.382;2023-04-07T16:12:46;99529.59;;;20.25;54.27
39449;BME280;25151;45.566;9.382;2023-04-07T16:16:40;99545.28;;;20.22;54.25
39449;BME280;25151;45.566;9.382;2023-04-07T16:20:47;99537.78;;;20.19;54.15
39449;BME280;25151;45.566;9.382;2023-04-07T16:24:31;99539.81;;;20.19;54.46
39449;BME280;25151;45.566;9.382;2023-04-07T16:38:58;99565.78;;;20.19;54.42
39449;BME280;25151;45.566;9.382;2023-04-07T16:42:02;99558.97;;;20.20;54.26
39449;BME280;25151;45.566;9.382;2023-04-07T16:56:31;99567.38;;;20.20;54.35
39449;BME280;25151;45.566;9.382;2023-04-07T16:59:36;99572.03;;;20.23;54.45
39449;BME280;25151;45.566;9.382;2023-04-07T17:03:19;99568.47;;;20.23;54.56
39449;BME280;25151;45.566;9.382;2023-04-07T17:06:24;99571.25;;;20.23;54.33
39449;BME280;25151;45.566;9.382;2023-04-07T17:09:27;99574.97;;;20.20;54.21
39449;BME280;25151;45.566;9.382;2023-04-07T17:12:30;99579.00;;;20.19;54.36
39449;BME280;25151;45.566;9.382;2023-04-07T17:15:35;99581.78;;;20.19;54.27
39449;BME280;25151;45.566;9.382;2023-04-07T17:18:47;99584.28;;;20.17;54.51
39449;BME280;25151;45.566;9.382;2023-04-07T17:21:49;99588.31;;;20.16;54.35
39449;BME280;25151;45.566;9.382;2023-04-07T17:24:54;99592.34;;;20.14;54.23
39449;BME280;25151;45.566;9.382;2023-04-07T17:27:56;99594.34;;;20.14;54.31
39449;BME280;25151;45.566;9.382;2023-04-07T17:30:57;99585.19;;;20.13;54.03
39449;BME280;25151;45.566;9.382;2023-04-07T17:33:59;99589.22;;;20.12;54.46
39449;BME280;25151;45.566;9.382;2023-04-07T17:37:02;99598.84;;;20.11;54.31
39449;BME280;25151;45.566;9.382;2023-04-07T17:40:05;99599.63;;;20.12;54.10
39449;BME280;25151;45.566;9.382;2023-04-07T17:43:08;99599.63;;;20.12;54.44
39449;BME280;25151;45.566;9.382;2023-04-07T17:46:11;99608.47;;;20.10;54.47
39449;BME280;25151;45.566;9.382;2023-04-07T17:49:14;99601.06;;;20.17;54.41
39449;BME280;25151;45.566;9.382;2023-04-07T17:52:15;99607.56;;;20.13;54.29
39449;BME280;25151;45.566;9.382;2023-04-07T17:55:17;99605.66;;;20.10;54.31
39449;BME280;25151;45.566;9.382;2023-04-07T17:58:19;99602.88;;;20.10;54.61
39449;BME280;25151;45.566;9.382;2023-04-07T18:01:20;99613.28;;;20.10;54.53
39449;BME280;25151;45.566;9.382;2023-04-07T18:04:22;99617.31;;;20.09;54.52
39449;BME280;25151;45.566;9.382;2023-04-07T18:07:27;99607.81;;;20.06;54.53
39449;BME280;25151;45.566;9.382;2023-04-07T18:10:35;99619.66;;;20.10;54.39
39449;BME280;25151;45.566;9.382;2023-04-07T18:13:45;99618.09;;;20.09;54.72
39449;BME280;25151;45.566;9.382;2023-04-07T18:16:50;99620.56;;;20.07;54.71
39449;BME280;25151;45.566;9.382;2023-04-07T18:19:57;99629.75;;;20.08;54.69
39449;BME280;25151;45.566;9.382;2023-04-07T18:23:00;99630.97;;;20.07;54.75
39449;BME280;25151;45.566;9.382;2023-04-07T18:26:05;99638.94;;;20.08;54.72
39449;BME280;25151;45.566;9.382;2023-04-07T18:29:12;99630.19;;;20.06;54.65
39449;BME280;25151;45.566;9.382;2023-04-07T18:32:20;99644.53;;;20.08;54.74